CYRJCYND

Guest
Details From CYRJ - ROBERVAL
To CYND - GATINEAU
Flight Number -
Tags generated
Created
Modified
Stats Distance 246 nm / 455 km
Max Altitude 24,800 ft / 7,559 m
Waypoints 4
Social Downloads 0
Likes 0
Share VATSIM

Download

Looking for another format? Having issues loading an existing format? Contact us
Advertisement - Login to hide

Notes

Basic altitude profile: - Ascent Rate: 2500ft/min - Ascent Speed: 250kts - Cruise Altitude: 35000ft - Cruise Speed: 420kts - Descent Rate: 1500ft/min - Descent Speed: 250kts Options: - Use NATs: yes - Use PACOTS: yes - Use low airways: yes - Use high airways: yes

Route

CYRJ YLQ R17 UFX CYND

ID Type Via Altitude Latitude Longitude Leg Dist Tot Dist Heading (true) Name
O CYRJ APT - 0 ft / 0 m 48.52000˚ -72.26556˚ - 0 nm - ROBERVAL
YLQ NDB - 24,800 ft / 7,559 m 47.41614˚ -72.78650˚ 69 nm 69 nm 198° / 197° LA TUQUE NDB
UFX NDB R17 (AWY-LO) 18,000 ft / 5,486 m 46.19225˚ -73.41903˚ 77 nm 147 nm 200° / 199° ST-FELIX-DE-VALOI NDB
O CYND APT - 0 ft / 0 m 45.52169˚ -75.56359˚ 98 nm 245 nm 247° / 245° GATINEAU

Altitude Profile

Advertisement - Login to hide

Weather


0- 5 10 15 20 25 30 35+ Temperature / ° C

Clouds and Precipitation
Forecast for 2018-05-27 00:00 UTC. Updated an hour ago

Ground ~20,000 ft ~40,000 ft Winds

CYRJ

Details ICAO CYRJ (YRJ)
Name ROBERVAL
Region Canada
Timezone America/Montreal (UTC-4.0)
Stats Elevation 586 ft / 179 m (AMSL)
Location 48.520001° -72.265556°
Runways 1
Magnetic Variation 16.037° W

METAR

CYRJ 270000Z 00000KT 40SM FEW220 15/M01 A3002 RMK CI1 SLP172 DENSITY ALT 600FT

Decode

TAF

TAF CYRJ 261938Z 2620/2702 01008KT P6SM FEW220 BECMG 2621/2623 VRB03KT BECMG 2700/2702 15005KT RMK NXT FCST WILL BE ISSUED AT 271145Z

Decode

Departure Runways

ID Width Length Bearing (true) Bearing (mag) Surface Threshold Offset Overrun Length
16 150 ft / 46 m 5,096 ft / 1,553 m 142.69° 158.73° Asphalt 0 ft / 0 m 0 ft / 0 m
34 150 ft / 46 m 5,096 ft / 1,553 m 322.70° 338.74° Asphalt 0 ft / 0 m 0 ft / 0 m

CYND

Details ICAO CYND (YND)
Name GATINEAU
Region Canada
Timezone America/Montreal (UTC-4.0)
Stats Elevation 211 ft / 64 m (AMSL)
Location 45.521693° -75.563587°
Runways 1
Magnetic Variation 13.345° W

METAR

CYND 270000Z 08007KT 15SM SCT023 BKN073 BKN220 21/18 A2989 RMK SC3AC2CI1 SLP124 DENSITY ALT 1000FT

Decode

TAF

TAF CYND 261741Z 2618/2701 VRB03KT P6SM SCT025 BKN120 TEMPO 2618/2622 09010KT P6SM -SHRA BKN025 OVC120 PROB30 2618/2620 VRB15G25KT 2SM TSRA BR BKN015 OVC120CB FM262200 09008KT P6SM SCT060 BKN140 RMK NXT FCST WILL BE ISSUED AT 271245Z

Decode

Destination Runways

ID Width Length Bearing (true) Bearing (mag) Surface Threshold Offset Overrun Length
09 150 ft / 46 m 5,983 ft / 1,824 m 75.36° 88.70° Asphalt 0 ft / 0 m 200 ft / 61 m
27 150 ft / 46 m 5,983 ft / 1,824 m 255.37° 268.71° Asphalt 0 ft / 0 m 200 ft / 61 m